SBANSBUR

Guest
Details From SBAN - Base Aerea
To SBUR - Uberaba
Flight Number -
Tags Generated
Created
Modified
Stats Distance 220 nm / 408 km
Max Altitude 0 ft / 0 m
Waypoints 3
Social Downloads 0
Likes 0
Share VATSIM

Download

Looking for another format? Having issues loading an existing format? Contact us
Advertisement - Login to hide

Notes

Generated

Route

SBAN URB SBUR

ID Type Via Altitude Latitude Longitude Leg Dist Tot Dist Heading (true) Name
O SBAN APT - 0 ft / 0 m -16.23939˚ -48.97167˚ - 0 nm - -
URB NDB - 0 ft / 0 m -19.76550˚ -47.95917˚ 219 nm 219 nm 165° / 165° UBERABA NDB
O SBUR APT - 0 ft / 0 m -19.75819˚ -47.96911˚ 0 nm 220 nm 308° / 308° -

Altitude Profile

Advertisement - Login to hide

Weather


0- 5 10 15 20 25 30 35+ Temperature / ° C

Clouds and Precipitation
Forecast for 2017-12-11 18:00 UTC. Updated 2 hours ago

Ground ~20,000 ft ~40,000 ft Winds

SBAN

Details ICAO SBAN
Name BASE AEREA
Region Brazil
Timezone America/Sao_Paulo (UTC-2.0)
Stats Elevation 3,728 ft / 1,136 m (AMSL)
Location -16.229153° -48.964267°
Runways 2
Magnetic Variation 21.115° W

METAR

SBAN 111600Z 07005KT 9999 VCSH BKN030 FEW035TCU BKN080 24/17 Q1013

Decode

TAF

TAF TAF SBAN 110800Z 1112/1124 32004KT 0400 FG OVC003 TN20/1112Z TX26/1118Z BECMG 1113/1114 2000 BR BKN004 BECMG 1115/1116 33005KT BKN015 BECMG 1117/1118 BKN020 FEW025TCU PROB40 1118/1122 TSRA SCT020 FEW025CB BECMG 1122/1123 34003KT SCT020 RMK PDA

Decode

Departure Runways

ID Width Length Bearing (true) Bearing (mag) Surface Threshold Offset Overrun Length
06L 148 ft / 45 m 10,862 ft / 3,311 m 38.85° 59.96° Asphalt 0 ft / 0 m 1,151 ft / 351 m
06R 75 ft / 23 m 7,469 ft / 2,277 m 38.80° 59.91° Asphalt 0 ft / 0 m 0 ft / 0 m
24L 75 ft / 23 m 7,469 ft / 2,277 m 218.79° 239.90° Asphalt 0 ft / 0 m 0 ft / 0 m
24R 148 ft / 45 m 10,862 ft / 3,311 m 218.84° 239.95° Asphalt 0 ft / 0 m 1,142 ft / 348 m

SBUR

Details ICAO SBUR (UBA)
Name Uberaba
Region Brazil
Timezone America/Sao_Paulo (UTC-2.0)
Stats Elevation 2,655 ft / 809 m (AMSL)
Location -19.765000° -47.964777°
Runways 1
Magnetic Variation 21.284° W

METAR

Not found

TAF

TAF SBUR 110900Z 1112/1124 29008KT CAVOK TX31/1118Z TN24/1123Z BECMG 1115/1117 30010KT SCT040 PROB30 TEMPO 1118/1122 23010KT TSRA SCT020 FEW040CB BECMG 1122/1124 05005KT RMK PGD

Decode

Destination Runways

ID Width Length Bearing (true) Bearing (mag) Surface Threshold Offset Overrun Length
17 148 ft / 45 m 5,791 ft / 1,765 m 149.07° 170.35° Asphalt 0 ft / 0 m 0 ft / 0 m
35 148 ft / 45 m 5,791 ft / 1,765 m 329.07° 350.35° Asphalt 0 ft / 0 m 0 ft / 0 m